createdAt,value
2023-05-07T00:00:11.264Z,11.77
2023-05-07T00:02:28.904Z,11.76
2023-05-07T00:04:46.252Z,11.73
2023-05-07T00:07:03.502Z,11.69
2023-05-07T00:09:20.862Z,11.64
2023-05-07T00:11:38.146Z,11.59
2023-05-07T00:13:55.473Z,11.54
2023-05-07T00:16:12.816Z,11.53
2023-05-07T00:18:29.773Z,11.49
2023-05-07T00:20:46.786Z,11.46
2023-05-07T00:23:03.711Z,11.43
2023-05-07T00:25:21.490Z,11.42
2023-05-07T00:27:39.294Z,11.39
2023-05-07T00:29:56.619Z,11.34
2023-05-07T00:32:14.037Z,11.35
2023-05-07T00:34:31.513Z,11.33
2023-05-07T00:36:49.786Z,11.32
2023-05-07T00:39:07.075Z,11.31
2023-05-07T00:41:24.310Z,11.29
2023-05-07T00:43:41.583Z,11.28
2023-05-07T00:45:59.070Z,11.26
2023-05-07T00:48:16.020Z,11.25
2023-05-07T00:50:33.933Z,11.22
2023-05-07T00:52:51.243Z,11.20
2023-05-07T00:55:09.606Z,11.18
2023-05-07T00:57:27.034Z,11.17
2023-05-07T00:59:44.374Z,11.14
2023-05-07T01:02:02.028Z,11.10
2023-05-07T01:04:20.410Z,11.06
2023-05-07T01:06:38.689Z,10.99
2023-05-07T01:08:57.921Z,10.97
2023-05-07T01:11:15.859Z,10.95
2023-05-07T01:13:32.893Z,10.90
2023-05-07T01:15:50.219Z,10.88
2023-05-07T01:18:07.588Z,10.84
2023-05-07T01:20:25.348Z,10.81
2023-05-07T01:22:42.613Z,10.79
2023-05-07T01:24:59.878Z,10.80
2023-05-07T01:27:17.206Z,10.81
2023-05-07T01:29:34.143Z,10.82
2023-05-07T01:31:51.852Z,10.83
2023-05-07T01:34:10.478Z,10.77
2023-05-07T01:36:27.452Z,10.73
2023-05-07T01:38:44.780Z,10.68
2023-05-07T01:41:02.425Z,10.64
2023-05-07T01:43:19.714Z,10.59
2023-05-07T01:45:36.985Z,10.53
2023-05-07T01:47:54.340Z,10.55
2023-05-07T01:50:12.138Z,10.50
2023-05-07T01:52:30.614Z,10.48
2023-05-07T01:54:48.321Z,10.46
2023-05-07T01:57:05.957Z,10.45
2023-05-07T01:59:23.249Z,10.43
2023-05-07T02:01:40.937Z,10.40
2023-05-07T02:03:58.271Z,10.39
2023-05-07T02:06:16.092Z,10.38
2023-05-07T02:08:34.384Z,10.35
2023-05-07T02:10:51.727Z,10.31
2023-05-07T02:13:08.974Z,10.27
2023-05-07T02:15:26.213Z,10.24
2023-05-07T02:17:43.508Z,10.22
2023-05-07T02:20:00.836Z,10.22
2023-05-07T02:22:18.166Z,10.22
2023-05-07T02:24:35.403Z,10.20
2023-05-07T02:26:52.738Z,10.20
2023-05-07T02:29:09.996Z,10.19
2023-05-07T02:31:27.010Z,10.17
2023-05-07T02:33:44.043Z,10.17
2023-05-07T02:36:01.442Z,10.16
2023-05-07T02:38:19.047Z,10.13
2023-05-07T02:40:36.510Z,10.12
2023-05-07T02:42:53.884Z,10.13
2023-05-07T02:45:11.619Z,10.12
2023-05-07T02:47:28.881Z,10.12
2023-05-07T02:49:46.281Z,10.12
2023-05-07T02:52:03.478Z,10.12
2023-05-07T02:54:22.996Z,10.11
2023-05-07T02:56:40.275Z,10.08
2023-05-07T02:58:57.455Z,10.07
2023-05-07T03:01:14.525Z,10.05
2023-05-07T03:03:31.998Z,10.03
2023-05-07T03:05:49.318Z,10.01
2023-05-07T03:08:07.068Z,9.99
2023-05-07T03:10:24.116Z,9.96
2023-05-07T03:12:41.871Z,9.90
2023-05-07T03:14:58.824Z,9.86
2023-05-07T03:17:16.029Z,9.83
2023-05-07T03:19:33.334Z,9.77
2023-05-07T03:21:50.395Z,9.74
2023-05-07T03:24:07.651Z,9.73
2023-05-07T03:26:24.989Z,9.71
2023-05-07T03:28:45.282Z,9.68
2023-05-07T03:31:02.614Z,9.64
2023-05-07T03:33:22.364Z,9.64
2023-05-07T03:35:41.382Z,9.59
2023-05-07T03:37:58.344Z,9.56
2023-05-07T03:40:16.297Z,9.51
2023-05-07T03:42:33.492Z,9.48
2023-05-07T03:44:50.512Z,9.47
2023-05-07T03:47:07.798Z,9.43
2023-05-07T03:49:25.463Z,9.40
2023-05-07T03:51:42.775Z,9.38
2023-05-07T03:54:03.255Z,9.35
2023-05-07T03:56:21.160Z,9.33
2023-05-07T03:58:38.856Z,9.29
2023-05-07T04:00:56.559Z,9.26
2023-05-07T04:03:14.251Z,9.25
2023-05-07T04:05:31.568Z,9.24
2023-05-07T04:07:49.606Z,9.22
2023-05-07T04:10:08.073Z,9.21
2023-05-07T04:12:25.639Z,9.21
2023-05-07T04:14:42.934Z,9.22
2023-05-07T04:17:01.197Z,9.19
2023-05-07T04:19:20.003Z,9.16
2023-05-07T04:21:37.419Z,9.15
2023-05-07T04:23:54.854Z,9.10
2023-05-07T04:26:12.240Z,9.07
2023-05-07T04:28:29.524Z,9.07
2023-05-07T04:30:46.473Z,9.08
2023-05-07T04:33:03.784Z,9.09
2023-05-07T04:35:21.778Z,9.07
2023-05-07T04:37:39.096Z,9.07
2023-05-07T04:39:56.456Z,9.05
2023-05-07T04:42:14.134Z,9.08
2023-05-07T04:44:31.462Z,9.11
2023-05-07T04:46:48.431Z,9.11
2023-05-07T04:49:05.666Z,9.13
2023-05-07T04:51:22.938Z,9.15
2023-05-07T04:53:40.206Z,9.18
2023-05-07T04:55:57.502Z,9.21
2023-05-07T04:58:15.735Z,9.24
2023-05-07T05:00:32.783Z,9.30
2023-05-07T05:02:50.140Z,9.38
2023-05-07T05:05:07.492Z,9.47
2023-05-07T05:07:24.886Z,9.60
2023-05-07T05:09:42.227Z,9.71
2023-05-07T05:11:59.394Z,9.83
2023-05-07T05:14:16.312Z,9.92
2023-05-07T05:16:38.740Z,10.00
2023-05-07T05:18:55.762Z,10.07
2023-05-07T05:21:13.054Z,10.13
2023-05-07T05:23:30.793Z,10.20
2023-05-07T05:25:48.153Z,10.27
2023-05-07T05:28:05.516Z,10.34
2023-05-07T05:30:23.340Z,10.42
2023-05-07T05:32:40.758Z,10.49
2023-05-07T05:34:58.160Z,10.56
2023-05-07T05:37:15.510Z,10.61
2023-05-07T05:39:33.227Z,10.64
2023-05-07T05:41:50.863Z,10.67
2023-05-07T05:44:08.106Z,10.69
2023-05-07T05:46:25.845Z,10.76
2023-05-07T05:48:43.245Z,10.85
2023-05-07T05:51:01.513Z,10.94
2023-05-07T05:53:18.756Z,11.00
2023-05-07T05:55:36.507Z,11.04
2023-05-07T05:57:55.049Z,11.10
2023-05-07T06:00:13.563Z,11.18
2023-05-07T06:02:32.126Z,11.25
2023-05-07T06:04:49.557Z,11.31
2023-05-07T06:07:06.965Z,11.35
2023-05-07T06:09:24.695Z,11.37
2023-05-07T06:11:41.988Z,11.39
2023-05-07T06:13:59.327Z,11.44
2023-05-07T06:16:17.694Z,11.55
2023-05-07T06:18:34.637Z,11.61
2023-05-07T06:20:51.896Z,11.66
2023-05-07T06:23:09.234Z,11.72
2023-05-07T06:25:26.631Z,11.76
2023-05-07T06:27:46.226Z,11.78
2023-05-07T06:30:08.615Z,11.86
2023-05-07T06:32:27.099Z,11.90
2023-05-07T06:34:44.825Z,11.93
2023-05-07T06:37:02.078Z,11.97
2023-05-07T06:39:19.390Z,12.11
2023-05-07T06:41:37.618Z,12.19
2023-05-07T06:43:55.349Z,12.24
2023-05-07T06:46:12.986Z,12.29
2023-05-07T06:48:30.050Z,12.37
2023-05-07T06:50:47.351Z,12.43
2023-05-07T06:53:05.621Z,12.49
2023-05-07T06:55:23.794Z,12.62
2023-05-07T06:57:41.094Z,12.67
2023-05-07T06:59:58.315Z,12.78
2023-05-07T07:02:17.716Z,12.84
2023-05-07T07:04:35.663Z,12.92
2023-05-07T07:06:52.714Z,12.96
2023-05-07T07:09:10.641Z,13.09
2023-05-07T07:11:27.655Z,13.19
2023-05-07T07:13:44.962Z,13.34
2023-05-07T07:16:03.263Z,13.43
2023-05-07T07:18:21.350Z,13.47
2023-05-07T07:20:38.681Z,13.50
2023-05-07T07:22:55.647Z,13.61
2023-05-07T07:25:12.921Z,13.72
2023-05-07T07:27:31.229Z,13.85
2023-05-07T07:29:48.583Z,14.03
2023-05-07T07:32:08.305Z,14.17
2023-05-07T07:34:25.833Z,14.31
2023-05-07T07:36:46.654Z,14.50
2023-05-07T07:39:04.273Z,14.57
2023-05-07T07:41:21.561Z,14.79
2023-05-07T07:43:38.839Z,14.95
2023-05-07T07:45:56.308Z,15.08
2023-05-07T07:48:14.407Z,15.19
2023-05-07T07:50:43.438Z,15.27
2023-05-07T07:53:02.219Z,15.44
2023-05-07T07:55:20.495Z,15.58
2023-05-07T07:57:37.837Z,15.66
2023-05-07T07:59:55.146Z,15.79
2023-05-07T08:02:13.122Z,15.87
2023-05-07T08:04:30.877Z,16.01
2023-05-07T08:06:49.343Z,16.07
2023-05-07T08:09:06.285Z,16.17
2023-05-07T08:11:23.244Z,16.24
2023-05-07T08:13:40.474Z,16.34
2023-05-07T08:15:57.762Z,16.37
2023-05-07T08:18:15.066Z,16.46
2023-05-07T08:20:32.445Z,16.55
2023-05-07T08:22:50.765Z,16.61
2023-05-07T08:25:07.763Z,16.72
2023-05-07T08:27:24.998Z,16.72
2023-05-07T08:29:42.743Z,16.81
2023-05-07T08:31:59.654Z,16.85
2023-05-07T08:34:16.734Z,16.92
2023-05-07T08:36:34.587Z,16.97
2023-05-07T08:38:51.863Z,17.04
2023-05-07T08:41:10.093Z,17.10
2023-05-07T08:43:27.421Z,17.21
2023-05-07T08:45:44.325Z,17.25
2023-05-07T08:48:03.525Z,17.29
2023-05-07T08:50:20.931Z,17.33
2023-05-07T08:52:38.007Z,17.38
2023-05-07T08:54:56.286Z,17.49
2023-05-07T08:57:13.248Z,17.56
2023-05-07T08:59:30.531Z,17.71
2023-05-07T09:01:47.622Z,17.79
2023-05-07T09:04:06.041Z,17.97
2023-05-07T09:06:23.728Z,18.05
2023-05-07T09:08:41.076Z,18.15
2023-05-07T09:10:58.012Z,18.29
2023-05-07T09:13:15.351Z,18.33
2023-05-07T09:15:32.770Z,18.49
2023-05-07T09:17:51.057Z,18.56
2023-05-07T09:20:10.817Z,18.74
2023-05-07T09:22:28.676Z,18.83
2023-05-07T09:24:45.896Z,18.97
2023-05-07T09:27:03.243Z,19.07
2023-05-07T09:29:20.566Z,19.17
2023-05-07T09:31:37.858Z,19.24
2023-05-07T09:33:55.076Z,19.17
2023-05-07T09:36:12.359Z,19.28
2023-05-07T09:38:29.599Z,19.28
2023-05-07T09:40:46.833Z,19.26
2023-05-07T09:43:03.784Z,19.22
2023-05-07T09:45:21.129Z,19.31
2023-05-07T09:47:38.516Z,19.35
2023-05-07T09:49:58.432Z,19.40
2023-05-07T09:52:15.700Z,19.49
2023-05-07T09:54:34.566Z,19.67
2023-05-07T09:56:51.497Z,19.74
2023-05-07T09:59:08.769Z,19.69
2023-05-07T10:01:25.730Z,19.79
2023-05-07T10:03:43.165Z,19.90
2023-05-07T10:06:00.629Z,20.00
2023-05-07T10:08:18.015Z,20.00
2023-05-07T10:10:35.325Z,19.99
2023-05-07T10:12:52.620Z,19.90
2023-05-07T10:15:10.820Z,19.92
2023-05-07T10:17:28.273Z,20.00
2023-05-07T10:19:46.586Z,20.10
2023-05-07T10:22:04.272Z,20.20
2023-05-07T10:24:21.567Z,20.37
2023-05-07T10:26:38.772Z,20.49
2023-05-07T10:28:56.011Z,20.51
2023-05-07T10:31:13.362Z,20.66
2023-05-07T10:33:30.715Z,20.81
2023-05-07T10:35:48.099Z,20.89
2023-05-07T10:38:06.309Z,21.02
2023-05-07T10:40:23.261Z,21.07
2023-05-07T10:42:40.603Z,21.14
2023-05-07T10:44:57.934Z,21.25
2023-05-07T10:47:15.218Z,21.18
2023-05-07T10:49:32.236Z,21.22
2023-05-07T10:51:49.553Z,21.22
2023-05-07T10:54:06.770Z,21.27
2023-05-07T10:56:24.188Z,21.33
2023-05-07T10:58:41.078Z,21.29
2023-05-07T11:00:58.308Z,21.31
2023-05-07T11:03:15.561Z,21.37
2023-05-07T11:05:34.440Z,21.42
2023-05-07T11:07:53.095Z,21.58
2023-05-07T11:10:10.819Z,21.57
2023-05-07T11:12:28.153Z,21.59
2023-05-07T11:14:45.384Z,21.57
2023-05-07T11:17:02.984Z,21.43
2023-05-07T11:19:20.687Z,21.43
2023-05-07T11:21:37.844Z,21.29
2023-05-07T11:23:56.731Z,21.29
2023-05-07T11:26:13.967Z,21.34
2023-05-07T11:28:31.271Z,21.33
2023-05-07T11:30:48.350Z,21.35
2023-05-07T11:33:06.788Z,21.42
2023-05-07T11:35:23.707Z,21.66
2023-05-07T11:37:41.033Z,21.74
2023-05-07T11:39:58.355Z,21.93
2023-05-07T11:42:16.820Z,22.07
2023-05-07T11:44:34.120Z,22.28
2023-05-07T11:46:51.537Z,22.44
2023-05-07T11:49:09.754Z,22.35
2023-05-07T11:51:26.997Z,22.29
2023-05-07T11:53:44.619Z,22.29
2023-05-07T11:56:02.984Z,22.26
2023-05-07T11:58:20.275Z,22.28
2023-05-07T12:00:56.226Z,22.28
2023-05-07T12:05:48.670Z,22.78
2023-05-07T12:08:06.162Z,23.06
2023-05-07T12:18:23.796Z,24.03
2023-05-07T12:20:43.826Z,24.21
2023-05-07T12:23:08.131Z,24.13
2023-05-07T12:33:34.591Z,24.35
2023-05-07T12:35:54.354Z,24.51
2023-05-07T12:38:30.649Z,24.40
2023-05-07T12:40:51.091Z,24.33
2023-05-07T12:48:24.855Z,23.85
2023-05-07T12:50:42.146Z,23.77
2023-05-07T12:52:59.058Z,23.65
2023-05-07T12:55:17.312Z,23.71
2023-05-07T12:57:34.668Z,23.73
2023-05-07T12:59:51.593Z,24.00
2023-05-07T13:02:09.375Z,24.03
2023-05-07T13:04:26.668Z,24.28
2023-05-07T13:06:44.040Z,24.31
2023-05-07T13:09:01.339Z,24.34
2023-05-07T13:11:18.873Z,24.46
2023-05-07T13:13:36.180Z,24.46
2023-05-07T13:15:54.622Z,24.30
2023-05-07T13:18:12.123Z,24.07
2023-05-07T13:20:29.447Z,23.79
2023-05-07T13:22:47.097Z,23.69
2023-05-07T13:25:04.410Z,23.72
2023-05-07T13:27:21.633Z,23.88
2023-05-07T13:29:38.642Z,23.90
2023-05-07T13:31:56.022Z,23.92
2023-05-07T13:34:13.360Z,23.99
2023-05-07T13:36:30.595Z,23.85
2023-05-07T13:38:47.593Z,23.67
2023-05-07T13:41:05.976Z,23.57
2023-05-07T13:43:23.345Z,23.40
2023-05-07T13:45:41.075Z,23.30
2023-05-07T13:47:58.443Z,23.29
2023-05-07T13:50:15.897Z,23.19
2023-05-07T13:52:33.247Z,23.21
2023-05-07T13:54:52.428Z,23.03
2023-05-07T13:57:09.752Z,22.94
2023-05-07T13:59:26.756Z,22.98
2023-05-07T14:01:44.087Z,22.83
2023-05-07T14:04:01.553Z,22.84
2023-05-07T14:06:18.979Z,22.84
2023-05-07T14:08:35.905Z,22.90
2023-05-07T14:10:53.177Z,22.90
2023-05-07T14:13:11.544Z,22.92
2023-05-07T14:15:28.898Z,22.88
2023-05-07T14:17:46.232Z,22.74
2023-05-07T14:20:03.604Z,22.66
2023-05-07T14:22:20.928Z,22.64
2023-05-07T14:24:39.221Z,22.46
2023-05-07T14:26:56.512Z,22.37
2023-05-07T14:29:13.839Z,22.31
2023-05-07T14:31:32.267Z,22.24
2023-05-07T14:33:49.646Z,22.24
2023-05-07T14:36:06.935Z,22.09
2023-05-07T14:38:25.326Z,22.02
2023-05-07T14:40:43.340Z,22.00
2023-05-07T14:43:00.657Z,21.94
2023-05-07T14:45:18.001Z,21.88
2023-05-07T14:47:35.357Z,21.81
2023-05-07T14:49:53.754Z,21.73
2023-05-07T14:52:10.675Z,21.64
2023-05-07T14:54:27.968Z,21.54
2023-05-07T14:56:45.090Z,21.43
2023-05-07T14:59:02.904Z,21.26
2023-05-07T15:01:20.250Z,21.04
2023-05-07T15:03:37.921Z,20.69
2023-05-07T15:05:55.494Z,20.46
2023-05-07T15:08:14.607Z,20.16
2023-05-07T15:10:32.865Z,19.94
2023-05-07T15:12:50.168Z,19.73
2023-05-07T15:15:07.645Z,19.51
2023-05-07T15:17:25.382Z,19.36
2023-05-07T15:19:42.416Z,19.14
2023-05-07T15:21:59.412Z,19.00
2023-05-07T15:24:16.921Z,18.89
2023-05-07T15:26:33.879Z,18.72
2023-05-07T15:28:51.588Z,18.48
2023-05-07T15:31:08.904Z,18.36
2023-05-07T15:33:27.138Z,18.17
2023-05-07T15:35:44.524Z,17.84
2023-05-07T15:38:01.870Z,17.71
2023-05-07T15:40:19.780Z,17.58
2023-05-07T15:42:37.085Z,17.56
2023-05-07T15:44:55.315Z,17.51
2023-05-07T15:47:12.575Z,17.40
2023-05-07T15:49:29.781Z,17.18
2023-05-07T15:51:46.838Z,17.09
2023-05-07T15:54:04.111Z,17.05
2023-05-07T15:56:21.144Z,16.99
2023-05-07T15:58:38.407Z,16.97
2023-05-07T16:00:55.704Z,16.94
2023-05-07T16:03:13.104Z,16.83
2023-05-07T16:05:31.385Z,16.82
2023-05-07T16:07:49.036Z,16.80
2023-05-07T16:10:06.372Z,16.81
2023-05-07T16:12:24.786Z,16.79
2023-05-07T16:14:42.080Z,16.77
2023-05-07T16:16:59.403Z,16.74
2023-05-07T16:19:16.693Z,16.73
2023-05-07T16:21:34.052Z,16.74
2023-05-07T16:23:51.303Z,16.72
2023-05-07T16:26:09.410Z,16.68
2023-05-07T16:28:27.649Z,16.72
2023-05-07T16:30:44.955Z,16.72
2023-05-07T16:33:03.228Z,16.78
2023-05-07T16:35:20.188Z,16.80
2023-05-07T16:37:37.242Z,16.76
2023-05-07T16:39:54.263Z,16.74
2023-05-07T16:42:11.209Z,16.68
2023-05-07T16:44:28.442Z,16.65
2023-05-07T16:46:45.795Z,16.58
2023-05-07T16:49:02.823Z,16.55
2023-05-07T16:51:19.789Z,16.51
2023-05-07T16:53:37.072Z,16.43
2023-05-07T16:55:54.319Z,16.40
2023-05-07T16:58:11.649Z,16.42
2023-05-07T17:00:34.697Z,16.39
2023-05-07T17:02:59.570Z,16.40
2023-05-07T17:05:16.982Z,16.34
2023-05-07T17:07:35.528Z,16.37
2023-05-07T17:09:52.860Z,16.34
2023-05-07T17:12:11.211Z,16.35
2023-05-07T17:14:28.478Z,16.34
2023-05-07T17:16:46.259Z,16.31
2023-05-07T17:19:03.351Z,16.29
2023-05-07T17:21:20.416Z,16.24
2023-05-07T17:23:37.499Z,16.20
2023-05-07T17:25:54.796Z,16.17
2023-05-07T17:28:12.023Z,16.12
2023-05-07T17:30:29.233Z,16.08
2023-05-07T17:32:46.569Z,16.07
2023-05-07T17:35:03.873Z,16.10
2023-05-07T17:37:23.457Z,16.14
2023-05-07T17:39:41.362Z,16.15
2023-05-07T17:41:58.393Z,16.16
2023-05-07T17:44:16.580Z,16.25
2023-05-07T17:46:33.676Z,16.23
2023-05-07T17:48:50.940Z,16.20
2023-05-07T17:51:08.211Z,16.19
2023-05-07T17:53:25.646Z,16.18
2023-05-07T17:55:42.946Z,16.13
2023-05-07T17:57:59.880Z,16.17
2023-05-07T18:00:17.146Z,16.12
2023-05-07T18:02:34.237Z,16.09
2023-05-07T18:04:51.317Z,16.07
2023-05-07T18:07:08.317Z,16.05
2023-05-07T18:09:25.607Z,16.01
2023-05-07T18:11:42.895Z,15.96
2023-05-07T18:14:01.219Z,15.94
2023-05-07T18:16:18.347Z,15.90
2023-05-07T18:18:35.759Z,15.94
2023-05-07T18:20:53.077Z,15.96
2023-05-07T18:23:11.109Z,15.94
2023-05-07T18:25:28.288Z,15.92
2023-05-07T18:27:46.646Z,15.90
2023-05-07T18:30:03.911Z,15.87
2023-05-07T18:32:22.323Z,15.84
2023-05-07T18:34:39.654Z,15.84
2023-05-07T18:36:56.626Z,15.82
2023-05-07T18:39:13.859Z,15.79
2023-05-07T18:41:32.134Z,15.76
2023-05-07T18:43:49.361Z,15.76
2023-05-07T18:46:06.712Z,15.73
2023-05-07T18:48:24.015Z,15.72
2023-05-07T18:50:40.966Z,15.70
2023-05-07T18:52:58.253Z,15.69
2023-05-07T18:55:16.021Z,15.67
2023-05-07T18:57:33.271Z,15.65
2023-05-07T18:59:50.279Z,15.65
2023-05-07T19:02:07.254Z,15.64
2023-05-07T19:04:24.305Z,15.67
2023-05-07T19:06:42.076Z,15.65
2023-05-07T19:08:59.426Z,15.66
2023-05-07T19:11:16.748Z,15.65
2023-05-07T19:13:33.948Z,15.64
2023-05-07T19:15:51.195Z,15.60
2023-05-07T19:18:08.586Z,15.62
2023-05-07T19:20:26.080Z,15.65
2023-05-07T19:22:43.934Z,15.69
2023-05-07T19:25:01.165Z,15.66
2023-05-07T19:27:19.423Z,15.66
2023-05-07T19:29:36.320Z,15.64
2023-05-07T19:31:53.730Z,15.71
2023-05-07T19:34:11.156Z,15.70
2023-05-07T19:36:29.011Z,15.70
2023-05-07T19:38:45.963Z,15.68
2023-05-07T19:41:03.259Z,15.64
2023-05-07T19:43:20.145Z,15.62
2023-05-07T19:45:37.493Z,15.61
2023-05-07T19:47:54.548Z,15.55
2023-05-07T19:50:11.945Z,15.55
2023-05-07T19:52:29.236Z,15.51
2023-05-07T19:54:46.741Z,15.49
2023-05-07T19:57:04.067Z,15.48
2023-05-07T19:59:21.422Z,15.47
2023-05-07T20:01:38.779Z,15.46
2023-05-07T20:03:57.269Z,15.46
2023-05-07T20:06:15.712Z,15.46
2023-05-07T20:08:32.975Z,15.42
2023-05-07T20:10:49.916Z,15.45
2023-05-07T20:13:07.205Z,15.44
2023-05-07T20:15:24.449Z,15.45
2023-05-07T20:17:42.818Z,15.48
2023-05-07T20:20:00.162Z,15.49
2023-05-07T20:22:17.082Z,15.49
2023-05-07T20:24:34.356Z,15.48
2023-05-07T20:26:51.625Z,15.45
2023-05-07T20:29:08.512Z,15.43
2023-05-07T20:31:26.276Z,15.38
2023-05-07T20:33:43.267Z,15.34
2023-05-07T20:36:00.910Z,15.34
2023-05-07T20:38:18.252Z,15.34
2023-05-07T20:40:35.584Z,15.30
2023-05-07T20:42:52.821Z,15.29
2023-05-07T20:45:09.778Z,15.28
2023-05-07T20:47:26.745Z,15.27
2023-05-07T20:49:44.039Z,15.29
2023-05-07T20:52:01.254Z,15.30
2023-05-07T20:54:18.248Z,15.31
2023-05-07T20:56:36.495Z,15.30
2023-05-07T20:58:55.670Z,15.29
2023-05-07T21:01:12.641Z,15.29
2023-05-07T21:03:30.061Z,15.28
2023-05-07T21:05:47.365Z,15.29
2023-05-07T21:08:05.616Z,15.28
2023-05-07T21:10:22.910Z,15.28
2023-05-07T21:12:40.672Z,15.30
2023-05-07T21:14:57.978Z,15.31
2023-05-07T21:17:14.900Z,15.32
2023-05-07T21:19:31.859Z,15.28
2023-05-07T21:21:48.939Z,15.23
2023-05-07T21:24:06.254Z,15.23
2023-05-07T21:26:23.989Z,15.20
2023-05-07T21:28:42.287Z,15.22
2023-05-07T21:30:59.312Z,15.22
2023-05-07T21:33:16.226Z,15.17
2023-05-07T21:35:33.189Z,15.14
2023-05-07T21:37:50.421Z,15.13
2023-05-07T21:40:07.955Z,15.15
2023-05-07T21:42:26.239Z,15.14
2023-05-07T21:44:46.031Z,15.12
2023-05-07T21:47:03.248Z,15.09
2023-05-07T21:49:20.509Z,15.02
2023-05-07T21:51:37.780Z,15.01
2023-05-07T21:53:56.027Z,15.00
2023-05-07T21:56:14.278Z,14.97
2023-05-07T21:58:32.573Z,14.96
2023-05-07T22:00:49.947Z,14.94
2023-05-07T22:03:07.307Z,14.92
2023-05-07T22:05:24.967Z,14.91
2023-05-07T22:07:42.011Z,14.87
2023-05-07T22:09:59.279Z,14.86
2023-05-07T22:12:16.622Z,14.84
2023-05-07T22:14:33.934Z,14.84
2023-05-07T22:16:51.420Z,14.86
2023-05-07T22:19:08.895Z,14.91
2023-05-07T22:21:26.221Z,14.92
2023-05-07T22:23:43.548Z,14.90
2023-05-07T22:26:00.866Z,14.89
2023-05-07T22:28:18.132Z,14.88
2023-05-07T22:30:34.993Z,14.83
2023-05-07T22:32:52.323Z,14.80
2023-05-07T22:35:10.076Z,14.78
2023-05-07T22:37:27.100Z,14.78
2023-05-07T22:39:44.306Z,14.78
2023-05-07T22:42:01.186Z,14.78
2023-05-07T22:44:19.370Z,14.76
2023-05-07T22:46:36.590Z,14.72
2023-05-07T22:48:53.873Z,14.66
2023-05-07T22:51:11.238Z,14.65
2023-05-07T22:53:28.555Z,14.64
2023-05-07T22:55:45.797Z,14.62
2023-05-07T22:58:03.138Z,14.65
2023-05-07T23:00:20.566Z,14.68
2023-05-07T23:02:37.682Z,14.67
2023-05-07T23:04:54.662Z,14.62
2023-05-07T23:07:12.027Z,14.56
2023-05-07T23:09:30.215Z,14.53
2023-05-07T23:11:47.849Z,14.51
2023-05-07T23:14:05.724Z,14.52
2023-05-07T23:16:22.979Z,14.53
2023-05-07T23:18:40.230Z,14.52
2023-05-07T23:20:57.493Z,14.51
2023-05-07T23:23:15.512Z,14.46
2023-05-07T23:25:33.257Z,14.43
2023-05-07T23:27:51.537Z,14.41
2023-05-07T23:30:08.794Z,14.38
2023-05-07T23:32:25.788Z,14.34
2023-05-07T23:34:43.093Z,14.31
2023-05-07T23:37:00.843Z,14.30
2023-05-07T23:39:18.190Z,14.29
2023-05-07T23:41:35.888Z,14.27
2023-05-07T23:43:53.133Z,14.28
2023-05-07T23:46:10.033Z,14.30
2023-05-07T23:48:27.370Z,14.30
2023-05-07T23:50:45.439Z,14.28
2023-05-07T23:53:02.644Z,14.26
2023-05-07T23:55:19.650Z,14.26
2023-05-07T23:57:38.406Z,14.26
2023-05-07T23:59:55.744Z,14.28
